Time;durP1;ratioP1;P1;durP2;ratioP2;P2;SDS_P1;SDS_P2;PMS_P1;PMS_P2;Temp;Humidity;BMP_temperature;BMP_pressure;BME280_temperature;BME280_humidity;BME280_pressure;Samples;Min_cycle;Max_cycle;Signal;HPM_P1;HPM_P2
2022/02/08 00:00:18;;;;;;;16.92;2.92;;;;;;;16.96;25.47;98308.50;5008869;28;20339;-81
2022/02/08 00:02:49;;;;;;;15.70;2.30;;;;;;;17.24;24.94;98308.78;5013243;28;20050;-81
2022/02/08 00:05:17;;;;;;;10.40;2.33;;;;;;;17.25;24.92;98319.47;5007413;28;20025;-82
2022/02/08 00:07:47;;;;;;;9.45;2.63;;;;;;;16.89;25.49;98314.78;5007482;28;20122;-82
2022/02/08 00:10:13;;;;;;;18.57;3.17;;;;;;;16.66;25.75;98319.66;5008740;28;20498;-82
2022/02/08 00:12:39;;;;;;;7.95;2.35;;;;;;;17.61;24.92;98317.03;5006326;28;20370;-82
2022/02/08 00:15:06;;;;;;;10.57;2.30;;;;;;;18.04;23.99;98315.38;5006909;28;20042;-82
2022/02/08 00:17:32;;;;;;;10.55;2.35;;;;;;;18.36;23.55;98281.00;5000400;28;20026;-82
2022/02/08 00:20:03;;;;;;;13.55;2.53;;;;;;;18.12;23.92;98326.13;5004014;28;20049;-81
2022/02/08 00:22:30;;;;;;;11.07;2.53;;;;;;;18.42;23.34;98321.13;5009426;28;20025;-82
2022/02/08 00:24:57;;;;;;;13.77;2.88;;;;;;;18.76;22.96;98324.47;5001142;28;20044;-82
2022/02/08 00:27:23;;;;;;;13.90;2.00;;;;;;;18.69;23.13;98324.44;5003073;28;20066;-82
2022/02/08 00:29:49;;;;;;;10.50;3.10;;;;;;;18.70;22.69;98319.66;5002548;28;20042;-81
2022/02/08 00:32:15;;;;;;;11.98;2.33;;;;;;;19.31;22.20;98319.41;5003670;28;20034;-82
2022/02/08 00:34:41;;;;;;;12.45;2.30;;;;;;;19.21;22.42;98329.34;4999244;28;20331;-82
2022/02/08 00:37:07;;;;;;;10.80;2.92;;;;;;;19.32;22.15;98327.38;5005686;28;20029;-82
2022/02/08 00:39:34;;;;;;;10.95;1.70;;;;;;;19.56;22.08;98334.19;5006742;28;20514;-82
2022/02/08 00:44:51;;;;;;;12.30;2.28;;;;;;;20.02;21.08;98339.75;4996106;28;20041;-82
2022/02/08 00:47:32;;;;;;;14.85;2.13;;;;;;;20.56;20.65;98342.00;5006717;28;20037;-82
2022/02/08 00:50:06;;;;;;;7.18;1.88;;;;;;;19.84;21.73;98339.75;5006837;28;20087;-82
2022/02/08 00:52:33;;;;;;;8.82;1.58;;;;;;;19.99;21.28;98341.34;5009767;28;20038;-82
2022/02/08 00:55:00;;;;;;;10.20;1.95;;;;;;;19.14;22.28;98342.44;5003177;28;20506;-82
2022/02/08 00:57:26;;;;;;;8.40;2.30;;;;;;;19.45;21.78;98338.16;5007733;28;20398;-81
2022/02/08 00:59:53;;;;;;;12.38;2.38;;;;;;;19.04;22.39;98348.81;5004952;28;20038;-82
2022/02/08 01:02:19;;;;;;;5.57;2.13;;;;;;;18.41;23.46;98350.09;4991047;28;20049;-82
2022/02/08 01:04:53;;;;;;;11.02;2.05;;;;;;;19.49;22.18;98348.09;5000921;28;20053;-82
2022/02/08 01:07:20;;;;;;;9.52;2.35;;;;;;;19.63;22.10;98350.09;4999078;28;20069;-82
2022/02/08 01:09:54;;;;;;;13.35;2.60;;;;;;;17.79;24.35;98365.19;4992402;28;20025;-82
2022/02/08 01:12:21;;;;;;;7.90;2.30;;;;;;;17.82;24.12;98368.00;4992176;28;20053;-81
2022/02/08 01:14:49;;;;;;;11.73;2.22;;;;;;;17.44;25.05;98362.88;4996541;28;20026;-82
2022/02/08 01:17:17;;;;;;;5.95;1.48;;;;;;;17.63;24.75;98351.56;5001264;28;20076;-82
2022/02/08 01:19:50;;;;;;;12.75;2.80;;;;;;;17.24;25.07;98362.31;5003253;28;20386;-81
2022/02/08 01:22:16;;;;;;;14.32;2.92;;;;;;;17.74;24.69;98371.88;4998674;28;20041;-82
2022/02/08 01:24:43;;;;;;;9.98;1.95;;;;;;;18.04;24.56;98374.47;4998559;28;20088;-82
2022/02/08 01:27:12;;;;;;;14.13;2.08;;;;;;;18.05;24.19;98375.28;4999812;28;20026;-82
2022/02/08 01:29:51;;;;;;;12.68;2.85;;;;;;;18.57;23.49;98375.66;4998522;28;20417;-82
2022/02/08 01:43:20;;;;;;;5.47;1.90;;;;;;;17.45;25.56;98391.44;5005316;28;20096;-82
2022/02/08 01:48:16;;;;;;;13.35;2.55;;;;;;;17.58;25.02;98381.66;5005695;28;20400;-82
2022/02/08 01:50:43;;;;;;;8.80;1.70;;;;;;;17.94;24.65;98400.22;5004599;28;20050;-82
2022/02/08 01:53:10;;;;;;;9.23;2.80;;;;;;;18.42;23.81;98398.97;5002830;28;20038;-82
2022/02/08 01:55:37;;;;;;;13.32;2.47;;;;;;;18.36;24.05;98389.41;5007761;28;20030;-82
2022/02/08 01:58:03;;;;;;;10.40;2.28;;;;;;;18.04;24.11;98396.72;5007449;28;20030;-82
2022/02/08 02:00:30;;;;;;;13.23;2.53;;;;;;;17.01;25.66;98408.78;5005234;28;20146;-82
2022/02/08 02:02:56;;;;;;;16.50;1.80;;;;;;;17.39;25.82;98404.03;5010525;28;20037;-82
2022/02/08 02:05:22;;;;;;;9.60;1.83;;;;;;;17.14;26.11;98403.78;5008770;28;20490;-82
2022/02/08 02:07:50;;;;;;;12.48;2.10;;;;;;;17.50;25.17;98410.50;5006037;28;20398;-82
2022/02/08 02:10:18;;;;;;;13.00;1.80;;;;;;;17.53;25.21;98409.75;5006470;28;20045;-82
2022/02/08 02:12:55;;;;;;;12.35;1.83;;;;;;;18.06;24.71;98411.03;5009759;28;20057;-82
2022/02/08 02:15:22;;;;;;;9.25;1.67;;;;;;;17.26;25.72;98426.53;5011083;28;20501;-82
2022/02/08 02:17:48;;;;;;;12.32;2.55;;;;;;;17.92;24.81;98431.16;5003701;28;20037;-82
2022/02/08 02:20:15;;;;;;;16.10;2.97;;;;;;;17.32;25.56;98418.66;5006234;28;20084;-82
2022/02/08 02:22:41;;;;;;;10.95;1.83;;;;;;;17.45;25.59;98433.06;5008038;28;20038;-82
2022/02/08 02:25:18;;;;;;;10.13;2.15;;;;;;;17.06;26.19;98444.50;5008527;28;20030;-81
2022/02/08 02:27:44;;;;;;;14.75;2.70;;;;;;;17.58;25.03;98435.22;5006864;28;20117;-82
2022/02/08 02:30:10;;;;;;;11.30;2.05;;;;;;;17.90;25.22;98446.59;5009955;28;20033;-82
2022/02/08 02:32:39;;;;;;;8.27;2.33;;;;;;;17.29;25.56;98436.06;5003525;28;20100;-82
2022/02/08 02:35:06;;;;;;;15.15;3.33;;;;;;;17.25;25.55;98444.34;5011352;28;20441;-81
2022/02/08 02:37:32;;;;;;;10.35;2.10;;;;;;;16.50;26.88;98425.16;5003601;28;20037;-81
2022/02/08 02:39:58;;;;;;;13.27;2.15;;;;;;;16.89;26.39;98456.22;5007147;28;20034;-81
2022/02/08 02:42:26;;;;;;;15.30;2.45;;;;;;;16.72;27.07;98454.00;5007908;28;20062;-81
2022/02/08 02:44:52;;;;;;;10.63;2.20;;;;;;;16.58;26.67;98456.56;5006705;28;20022;-81
2022/02/08 02:47:19;;;;;;;6.13;1.58;;;;;;;16.61;27.46;98468.88;5004194;28;20100;-82
2022/02/08 02:49:45;;;;;;;10.32;1.83;;;;;;;17.03;26.27;98459.16;5001391;28;20114;-81
2022/02/08 02:52:11;;;;;;;10.38;1.98;;;;;;;17.57;25.56;98466.13;5002673;28;20044;-82
2022/02/08 02:54:37;;;;;;;11.45;2.22;;;;;;;18.06;24.79;98483.28;5004199;28;20084;-81
2022/02/08 02:57:04;;;;;;;14.65;2.42;;;;;;;17.42;25.86;98486.56;5005243;28;20056;-81
2022/02/08 02:59:33;;;;;;;6.93;2.03;;;;;;;16.28;27.12;98475.91;5005422;28;20113;-81
2022/02/08 03:04:43;;;;;;;9.95;2.03;;;;;;;17.19;25.83;98483.91;5008464;28;20048;-81
2022/02/08 03:18:32;;;;;;;5.70;1.63;;;;;;;16.79;26.88;98505.97;5008105;28;20448;-82
2022/02/08 03:20:56;;;;;;;17.23;2.55;;;;;;;16.40;27.08;98508.94;5010771;28;20049;-82
2022/02/08 03:23:22;;;;;;;8.82;1.60;;;;;;;16.99;26.26;98521.31;5002676;28;20034;-82
2022/02/08 03:25:48;;;;;;;13.73;2.22;;;;;;;17.70;25.24;98518.25;4999581;28;20038;-82
2022/02/08 03:28:14;;;;;;;10.00;1.80;;;;;;;16.35;27.60;98525.06;5005518;28;20104;-82
2022/02/08 03:30:40;;;;;;;5.47;1.15;;;;;;;16.88;26.72;98515.59;5002441;28;20041;-82
2022/02/08 03:33:08;;;;;;;13.73;2.25;;;;;;;17.22;26.28;98533.13;5006731;28;20367;-82
2022/02/08 03:35:34;;;;;;;8.88;1.40;;;;;;;16.97;26.55;98527.22;5001876;28;20045;-81
2022/02/08 03:38:04;;;;;;;8.27;1.48;;;;;;;16.52;27.14;98535.69;5003947;28;20026;-81
2022/02/08 03:43:13;;;;;;;20.80;1.88;;;;;;;18.35;24.65;98539.88;5002572;28;20042;-82
2022/02/08 03:45:46;;;;;;;11.27;1.40;;;;;;;18.25;24.65;98535.81;5001111;28;20083;-81
2022/02/08 03:48:15;;;;;;;11.38;1.48;;;;;;;18.43;24.24;98542.34;5001843;28;20417;-82
2022/02/08 03:50:45;;;;;;;9.40;1.58;;;;;;;18.07;24.79;98543.22;5005911;28;20049;-81
2022/02/08 03:53:11;;;;;;;5.40;1.13;;;;;;;17.93;25.17;98562.50;5002198;28;20037;-81
2022/02/08 03:55:37;;;;;;;8.20;1.50;;;;;;;16.60;26.86;98562.31;5006761;28;20033;-81
2022/02/08 03:58:03;;;;;;;11.80;1.75;;;;;;;17.28;25.87;98567.66;5003893;28;20033;-81
2022/02/08 04:00:35;;;;;;;10.27;1.80;;;;;;;15.81;28.51;98569.63;5008357;28;20474;-81
2022/02/08 04:03:01;;;;;;;17.65;2.40;;;;;;;16.65;27.11;98584.19;5001043;28;20520;-82
2022/02/08 04:05:35;;;;;;;10.80;1.98;;;;;;;16.57;27.22;98572.19;5009236;28;20030;-81
2022/02/08 04:08:06;;;;;;;10.35;2.08;;;;;;;17.78;25.62;98580.22;5005206;28;20118;-81
2022/02/08 04:10:32;;;;;;;15.20;1.90;;;;;;;17.57;25.76;98585.53;5005319;28;20364;-81
2022/02/08 04:13:12;;;;;;;12.23;1.52;;;;;;;17.78;25.62;98594.88;5008201;28;20033;-81
2022/02/08 04:34:44;;;;;;;10.02;1.60;;;;;;;16.83;26.57;98626.84;5000934;28;20072;-81
2022/02/08 04:42:37;;;;;;;15.83;1.90;;;;;;;16.41;27.24;98642.72;5002850;28;20034;-81
2022/02/08 04:47:48;;;;;;;9.15;1.40;;;;;;;16.10;27.86;98649.31;5004178;28;20041;-81
2022/02/08 04:50:17;;;;;;;6.18;1.83;;;;;;;16.98;26.39;98652.84;5000712;28;20104;-82
2022/02/08 04:52:43;;;;;;;11.27;1.83;;;;;;;17.21;26.17;98659.13;5008287;28;20493;-82
2022/02/08 04:57:55;;;;;;;12.90;1.88;;;;;;;17.48;25.80;98662.72;5007613;28;20092;-81
2022/02/08 05:45:48;;;;;;;12.30;2.60;;;;;;;19.08;23.41;98692.72;5001094;28;20103;-82
2022/02/08 05:48:22;;;;;;;8.25;2.13;;;;;;;18.00;24.83;98692.34;5004536;28;20109;-82
2022/02/08 05:50:58;;;;;;;11.52;1.90;;;;;;;17.52;25.36;98699.66;5004158;28;20038;-82
2022/02/08 05:53:42;;;;;;;9.43;1.77;;;;;;;16.97;26.28;98707.50;5006264;28;20069;-82
2022/02/08 05:56:13;;;;;;;11.80;2.25;;;;;;;16.57;26.66;98704.41;5009022;28;20030;-82
2022/02/08 05:58:42;;;;;;;9.70;1.80;;;;;;;17.89;25.04;98718.03;5003616;28;20470;-82
2022/02/08 06:01:08;;;;;;;9.93;1.65;;;;;;;18.78;23.78;98711.53;5005693;28;20076;-82
2022/02/08 06:03:35;;;;;;;12.10;2.08;;;;;;;17.81;24.60;98721.91;5010080;28;20502;-82
2022/02/08 06:06:01;;;;;;;13.68;2.00;;;;;;;18.40;24.05;98718.25;5009130;28;20041;-82
2022/02/08 06:08:27;;;;;;;8.93;3.17;;;;;;;18.57;23.88;98720.47;5009930;28;20053;-82
2022/02/08 06:11:02;;;;;;;11.98;1.50;;;;;;;18.79;23.48;98720.66;5001113;28;20022;-81
2022/02/08 06:13:30;;;;;;;12.80;2.13;;;;;;;18.24;24.00;98722.44;5003412;28;20122;-81
2022/02/08 06:16:02;;;;;;;9.00;2.08;;;;;;;18.04;24.24;98723.78;5004840;28;20034;-81
2022/02/08 06:18:30;;;;;;;6.95;2.20;;;;;;;18.03;24.18;98724.94;5000676;28;20546;-80
2022/02/08 06:20:56;;;;;;;7.65;2.05;;;;;;;18.80;23.31;98728.63;5004608;28;20305;-82
2022/02/08 06:23:23;;;;;;;11.45;2.58;;;;;;;17.28;25.38;98736.94;5005916;28;20034;-81
2022/02/08 06:25:49;;;;;;;12.45;2.13;;;;;;;17.01;25.62;98738.88;5006297;28;20597;-81
2022/02/08 06:28:16;;;;;;;12.65;2.08;;;;;;;16.83;26.24;98743.31;5010926;28;20034;-79
2022/02/08 06:30:45;;;;;;;11.63;2.35;;;;;;;17.14;25.90;98753.38;5003856;28;20157;-81
2022/02/08 06:33:13;;;;;;;14.90;2.10;;;;;;;17.86;24.85;98754.91;5006009;28;20045;-80
2022/02/08 06:35:39;;;;;;;6.68;2.10;;;;;;;17.43;25.59;98758.22;5014823;28;20041;-82
2022/02/08 06:38:09;;;;;;;8.50;1.85;;;;;;;18.78;23.75;98761.59;5010913;28;20180;-82
2022/02/08 06:40:37;;;;;;;3.75;1.17;;;;;;;19.18;22.86;98763.56;5000193;28;20042;-82
2022/02/08 06:43:04;;;;;;;12.30;2.20;;;;;;;19.22;23.09;98764.41;5009840;28;20041;-82
2022/02/08 06:45:31;;;;;;;9.38;2.15;;;;;;;19.45;22.53;98765.00;5005333;28;20041;-82
2022/02/08 06:47:57;;;;;;;8.90;2.00;;;;;;;19.16;22.96;98766.72;5009938;28;20033;-82
2022/02/08 06:50:24;;;;;;;13.23;2.17;;;;;;;19.01;23.10;98775.34;5004056;28;20032;-82
2022/02/08 06:52:50;;;;;;;9.55;1.90;;;;;;;18.88;23.23;98777.59;5002976;28;20060;-82
2022/02/08 06:55:18;;;;;;;13.43;2.38;;;;;;;18.64;23.51;98783.69;5011003;28;20047;-82
2022/02/08 06:58:05;;;;;;;7.82;1.92;;;;;;;19.09;23.05;98783.34;5013950;28;20490;-82
2022/02/08 07:00:38;;;;;;;11.63;1.92;;;;;;;19.76;21.92;98781.16;5004331;28;20504;-82
2022/02/08 07:03:09;;;;;;;7.03;1.90;;;;;;;20.17;21.51;98790.13;5002703;28;20496;-82
2022/02/08 07:05:35;;;;;;;;;;;;;;;20.99;20.63;98791.25;5009113;28;20038;-82
2022/02/08 07:08:01;;;;;;;12.50;1.90;;;;;;;19.79;21.81;98797.06;4998966;28;19918;-82
2022/02/08 07:10:28;;;;;;;8.30;1.80;;;;;;;19.32;22.79;98797.09;5014349;28;20034;-82
2022/02/08 07:12:55;;;;;;;16.52;2.38;;;;;;;19.49;22.48;98799.25;5014565;28;20041;-82
2022/02/08 07:15:22;;;;;;;6.32;1.90;;;;;;;19.73;22.00;98792.25;5014339;28;20363;-82
2022/02/08 07:17:48;;;;;;;11.05;1.98;;;;;;;19.77;21.85;98799.47;5006782;28;20042;-82
2022/02/08 07:20:15;;;;;;;13.05;2.58;;;;;;;19.83;21.97;98803.50;5012820;28;20041;-82
2022/02/08 07:22:41;;;;;;;13.95;3.28;;;;;;;19.45;21.78;98798.44;5014697;28;20045;-82
2022/02/08 07:25:08;;;;;;;13.32;1.85;;;;;;;17.67;24.52;98799.44;5000669;28;20034;-81
2022/02/08 07:27:35;;;;;;;8.88;2.50;;;;;;;17.71;24.40;98803.06;4995286;28;20034;-82
2022/02/08 07:30:09;;;;;;;8.30;1.65;;;;;;;17.35;25.22;98814.78;5014185;28;20021;-82
2022/02/08 07:32:37;;;;;;;7.40;2.03;;;;;;;18.18;24.66;98810.88;5009662;28;20034;-81
2022/02/08 07:38:06;;;;;;;11.43;2.65;;;;;;;18.85;23.02;98789.50;5011649;28;20617;-81
2022/02/08 07:43:03;;;;;;;11.57;2.80;;;;;;;18.09;24.35;98804.00;4996385;28;20034;-82
2022/02/08 07:45:29;;;;;;;17.02;2.67;;;;;;;17.39;25.22;98798.16;5002092;28;20025;-82
2022/02/08 07:47:55;;;;;;;11.55;2.05;;;;;;;17.96;24.94;98809.00;5013226;28;20513;-82
2022/02/08 07:50:26;;;;;;;6.47;2.20;;;;;;;17.98;24.35;98809.44;5013803;28;20033;-81
2022/02/08 07:52:53;;;;;;;12.98;1.80;;;;;;;17.27;25.74;98811.06;4997311;28;20038;-82
2022/02/08 07:55:21;;;;;;;11.60;2.63;;;;;;;19.73;22.31;98809.78;5010949;28;20030;-82
2022/02/08 07:57:48;;;;;;;7.03;1.65;;;;;;;18.23;24.65;98812.53;4995604;28;20121;-82
2022/02/08 08:00:14;;;;;;;12.95;3.13;;;;;;;17.78;24.72;98807.97;4998977;28;20045;-82
2022/02/08 08:02:40;;;;;;;15.73;2.10;;;;;;;17.45;25.80;98810.56;5002883;28;20040;-82
2022/02/08 08:05:08;;;;;;;11.55;3.42;;;;;;;17.64;25.53;98816.84;5013702;28;20041;-82
2022/02/08 08:07:34;;;;;;;20.88;2.80;;;;;;;17.56;24.30;98817.13;5010466;28;20471;-82
2022/02/08 08:10:02;;;;;;;12.02;2.80;;;;;;;18.13;24.53;98811.25;4994562;28;20073;-82
2022/02/08 08:12:29;;;;;;;11.70;2.05;;;;;;;17.47;26.08;98825.69;5012029;28;20057;-82
2022/02/08 08:14:58;;;;;;;8.88;2.00;;;;;;;18.71;24.10;98814.38;5011663;28;20478;-83
2022/02/08 08:19:54;;;;;;;14.55;2.42;;;;;;;17.66;24.65;98817.31;5004818;28;20108;-82
2022/02/08 08:22:20;;;;;;;7.60;1.30;;;;;;;19.16;23.09;98827.97;5018617;28;20040;-82
2022/02/08 08:24:47;;;;;;;9.60;2.20;;;;;;;17.90;24.38;98829.94;5012940;28;20038;-82
2022/02/08 08:27:14;;;;;;;8.88;2.05;;;;;;;17.27;25.83;98843.56;5013842;28;20120;-82
2022/02/08 08:29:41;;;;;;;8.68;2.60;;;;;;;17.68;24.42;98828.03;5013377;28;20029;-82
2022/02/08 08:32:08;;;;;;;6.90;2.35;;;;;;;17.84;25.07;98837.81;5011326;28;20382;-82
2022/02/08 08:34:36;;;;;;;9.55;2.03;;;;;;;18.72;23.67;98829.88;5013891;28;20038;-82
2022/02/08 08:37:06;;;;;;;5.75;1.85;;;;;;;18.37;23.67;98824.66;5014616;28;20033;-82
2022/02/08 08:39:42;;;;;;;9.07;1.90;;;;;;;18.40;23.57;98829.47;5013718;28;20045;-82
2022/02/08 08:42:35;;;;;;;7.45;2.13;;;;;;;17.94;24.73;98831.63;5003951;28;20054;-82
2022/02/08 08:48:23;;;;;;;9.50;1.80;;;;;;;17.40;24.70;98824.75;4999403;28;20057;-82
2022/02/08 08:50:56;;;;;;;9.43;2.67;;;;;;;18.28;23.35;98806.66;5007283;28;20056;-82
2022/02/08 08:53:24;;;;;;;6.22;1.95;;;;;;;19.29;22.18;98809.00;5005256;28;20502;-82
2022/02/08 08:55:51;;;;;;;8.93;2.20;;;;;;;20.15;21.45;98812.03;5026452;28;20113;-82
2022/02/08 08:58:17;;;;;;;10.60;2.17;;;;;;;20.22;21.16;98803.75;5005651;28;20033;-82
2022/02/08 09:00:43;;;;;;;9.65;1.63;;;;;;;20.04;21.89;98808.41;5011752;28;20509;-82
2022/02/08 09:03:09;;;;;;;5.68;1.20;;;;;;;19.47;22.09;98804.41;5012088;28;20065;-82
2022/02/08 09:05:35;;;;;;;5.70;1.30;;;;;;;20.92;19.87;98794.84;5004710;28;20468;-82
2022/02/08 09:08:02;;;;;;;4.43;1.00;;;;;;;21.13;20.04;98797.69;5006886;28;20065;-82
2022/02/08 09:10:37;;;;;;;10.25;1.88;;;;;;;21.26;19.31;98800.91;5003649;28;20034;-82
2022/02/08 09:15:53;;;;;;;8.60;1.58;;;;;;;20.83;19.73;98799.19;5005611;28;20061;-82
2022/02/08 09:23:43;;;;;;;10.93;1.58;;;;;;;21.03;20.47;98795.66;5003691;28;20129;-82
2022/02/08 09:28:42;;;;;;;6.85;2.08;;;;;;;21.57;18.82;98777.75;5010305;28;20470;-82
2022/02/08 09:31:13;;;;;;;10.88;2.17;;;;;;;20.35;21.22;98784.69;5009710;28;20554;-82
2022/02/08 09:33:39;;;;;;;9.95;1.50;;;;;;;19.32;22.51;98791.53;5010346;28;20061;-82
2022/02/08 09:36:05;;;;;;;6.78;1.80;;;;;;;20.10;21.63;98792.09;5012248;28;20022;-82
2022/02/08 09:38:34;;;;;;;4.10;1.30;;;;;;;20.61;20.93;98789.97;5009727;28;20029;-82
2022/02/08 09:41:02;;;;;;;5.88;1.40;;;;;;;18.80;24.56;98792.63;4995283;28;20109;-82
2022/02/08 09:43:30;;;;;;;5.85;1.52;;;;;;;19.57;22.97;98794.53;5009540;28;20077;-82
2022/02/08 09:46:01;;;;;;;16.45;5.10;;;;;;;19.84;21.76;98782.78;5008773;28;20037;-82
2022/02/08 09:48:48;;;;;;;8.68;1.88;;;;;;;18.20;24.27;98786.31;4998494;28;20093;-82
2022/02/08 09:51:16;;;;;;;8.88;2.00;;;;;;;20.62;21.06;98797.94;5007083;28;20571;-82
2022/02/08 09:53:43;;;;;;;10.38;1.88;;;;;;;20.36;21.01;98792.66;5004141;28;20040;-82
2022/02/08 09:56:11;;;;;;;7.18;1.83;;;;;;;19.67;22.37;98791.84;5009838;28;20105;-82
2022/02/08 09:58:38;;;;;;;9.30;2.60;;;;;;;19.80;22.52;98786.75;5014732;28;20124;-82
2022/02/08 10:01:11;;;;;;;10.95;2.70;;;;;;;18.85;23.54;98786.72;5009593;28;20057;-82
2022/02/08 10:03:53;;;;;;;7.65;2.15;;;;;;;18.11;23.81;98810.78;5016768;28;20034;-82
2022/02/08 10:06:20;;;;;;;5.93;1.75;;;;;;;18.87;22.83;98798.25;5007670;28;20109;-82
2022/02/08 10:08:56;;;;;;;7.72;2.58;;;;;;;18.74;23.04;98785.78;5011614;28;20394;-82
2022/02/08 10:11:27;;;;;;;11.35;2.67;;;;;;;19.03;22.43;98792.44;5013159;28;20045;-82
2022/02/08 10:14:02;;;;;;;;;;;;;;;20.20;20.81;98788.56;5008676;28;20026;-82
2022/02/08 10:22:06;;;;;;;14.48;3.10;;;;;;;18.67;23.46;98780.13;5011067;28;20052;-82
2022/02/08 10:24:36;;;;;;;9.20;2.53;;;;;;;19.10;23.52;98784.16;4996731;28;20431;-82
2022/02/08 10:27:04;;;;;;;12.52;2.72;;;;;;;19.14;23.33;98773.84;5012230;28;20034;-81
2022/02/08 10:38:07;;;;;;;10.93;2.97;;;;;;;19.29;22.63;98756.09;4999520;28;20057;-82
2022/02/08 10:40:38;;;;;;;14.32;2.95;;;;;;;19.73;22.99;98759.63;5008127;28;20056;-82
2022/02/08 10:43:09;;;;;;;14.63;3.38;;;;;;;20.79;21.17;98762.13;5018312;28;20036;-81
2022/02/08 10:45:38;;;;;;;10.20;2.53;;;;;;;20.44;21.91;98752.44;5009988;28;20152;-81
2022/02/08 10:48:21;;;;;;;8.10;2.33;;;;;;;20.19;22.01;98747.91;5016777;28;20044;-82
2022/02/08 10:50:55;;;;;;;11.98;2.58;;;;;;;19.15;23.07;98748.44;5009024;28;20034;-82
2022/02/08 10:53:24;;;;;;;13.50;3.65;;;;;;;19.89;22.66;98743.41;5012917;28;20406;-81
2022/02/08 10:56:05;;;;;;;7.78;1.70;;;;;;;20.08;22.51;98752.66;5009925;28;20026;-82
2022/02/08 10:58:40;;;;;;;9.20;2.67;;;;;;;19.81;23.10;98746.56;5018074;28;20041;-81
2022/02/08 11:01:23;;;;;;;6.18;1.98;;;;;;;19.41;23.27;98747.47;5016001;28;20042;-81
2022/02/08 11:04:00;;;;;;;9.30;2.03;;;;;;;20.27;21.69;98749.59;5014164;28;20072;-81
2022/02/08 11:06:39;;;;;;;5.53;2.22;;;;;;;20.28;20.80;98745.63;5012985;28;20029;-82
2022/02/08 11:17:36;;;;;;;8.02;1.50;;;;;;;20.50;21.38;98731.34;5015932;28;20041;-82
2022/02/08 11:23:07;;;;;;;7.28;1.55;;;;;;;21.17;20.51;98713.91;5009114;28;20088;-83
2022/02/08 11:25:40;;;;;;;4.47;1.90;;;;;;;21.75;20.39;98705.06;5008315;28;20101;-83
2022/02/08 11:28:29;;;;;;;7.88;1.60;;;;;;;22.20;19.67;98706.13;5008437;28;20537;-82
2022/02/08 11:31:16;;;;;;;5.38;1.55;;;;;;;22.72;19.79;98713.47;5006186;28;20025;-83
2022/02/08 11:34:01;;;;;;;8.52;2.17;;;;;;;22.50;19.20;98686.78;5011473;28;20122;-82
2022/02/08 11:40:05;;;;;;;6.75;1.33;;;;;;;19.60;22.72;98680.38;5008611;28;20200;-83
2022/02/08 11:58:45;;;;;;;6.50;2.00;;;;;;;22.01;19.09;98666.25;5012461;28;20087;-83
2022/02/08 12:01:17;;;;;;;8.27;1.90;;;;;;;21.74;19.01;98673.53;5010615;28;20034;-83
2022/02/08 12:06:49;;;;;;;6.50;1.70;;;;;;;22.44;18.61;98669.66;5009756;28;20571;-83
2022/02/08 12:09:24;;;;;;;5.60;1.33;;;;;;;22.64;18.18;98653.94;5006438;28;20069;-83
2022/02/08 12:27:11;;;;;;;6.00;1.45;;;;;;;21.76;19.15;98661.94;4965854;28;20042;-83
2022/02/08 12:29:23;;;;;;;4.10;1.40;;;;;;;23.38;17.67;98632.13;5006048;28;20540;-83
2022/02/08 12:31:39;;;;;;;4.95;1.40;;;;;;;23.54;17.50;98638.78;5005916;28;20045;-83
2022/02/08 13:01:26;;;;;;;5.03;1.63;;;;;;;22.45;16.41;98561.31;5010087;28;20116;-82
2022/02/08 13:04:14;;;;;;;6.82;2.10;;;;;;;22.33;16.83;98578.59;5009430;28;20042;-82
2022/02/08 14:01:45;;;;;;;6.22;2.50;;;;;;;24.53;15.92;98539.25;5004601;28;20177;-82
2022/02/08 14:09:25;;;;;;;3.47;1.65;;;;;;;24.16;16.28;98542.25;5014070;28;20119;-82
2022/02/08 14:19:35;;;;;;;4.38;1.90;;;;;;;23.14;17.44;98535.91;5008299;28;20517;-82
2022/02/08 14:22:35;;;;;;;7.40;2.85;;;;;;;23.34;16.88;98537.69;5006190;28;20037;-82
2022/02/08 14:30:26;;;;;;;7.38;2.35;;;;;;;23.68;17.14;98526.47;5004908;28;20588;-82
2022/02/08 14:33:06;;;;;;;4.47;1.58;;;;;;;24.45;16.40;98521.75;5006467;28;20034;-83
2022/02/08 14:57:29;;;;;;;5.45;2.20;;;;;;;23.44;17.16;98529.56;5008808;28;20498;-83
2022/02/08 15:05:52;;;;;;;5.22;2.10;;;;;;;21.61;18.09;98540.25;5004366;28;20085;-82
2022/02/08 15:08:27;;;;;;;5.28;2.00;;;;;;;20.22;20.51;98546.44;5006489;28;20026;-82
2022/02/08 15:11:00;;;;;;;4.78;1.88;;;;;;;19.58;21.67;98545.47;5003073;28;20037;-82
2022/02/08 15:13:27;;;;;;;7.25;2.65;;;;;;;18.70;23.64;98551.31;5005956;28;20038;-82
2022/02/08 15:16:17;;;;;;;3.45;2.00;;;;;;;19.39;21.21;98541.03;5007732;28;20489;-82
2022/02/08 15:18:43;;;;;;;4.63;2.33;;;;;;;20.63;20.07;98517.75;5004263;28;20033;-82
2022/02/08 15:21:14;;;;;;;5.00;1.88;;;;;;;20.08;21.02;98540.81;5005667;28;20508;-82
2022/02/08 15:23:40;;;;;;;8.23;2.10;;;;;;;20.87;19.83;98532.06;5001196;28;20041;-83
2022/02/08 15:26:06;;;;;;;7.57;1.70;;;;;;;19.42;21.54;98545.00;5005410;28;20031;-82
2022/02/08 15:28:33;;;;;;;11.27;2.60;;;;;;;20.14;20.98;98537.22;5009225;28;20041;-82
2022/02/08 15:30:59;;;;;;;4.65;2.20;;;;;;;21.28;20.02;98533.97;5004824;28;20026;-83
2022/02/08 15:33:26;;;;;;;7.25;2.83;;;;;;;21.13;19.48;98545.59;5005205;28;20033;-83
2022/02/08 15:35:53;;;;;;;3.67;1.80;;;;;;;21.06;20.18;98545.59;5006457;28;20141;-83
2022/02/08 15:38:22;;;;;;;7.40;2.30;;;;;;;21.72;19.51;98547.38;5006607;28;20038;-82
2022/02/08 15:40:48;;;;;;;4.90;1.90;;;;;;;21.15;19.80;98543.19;5006796;28;20068;-82
2022/02/08 15:43:14;;;;;;;5.25;2.03;;;;;;;20.83;20.82;98553.59;5004680;28;20038;-82
2022/02/08 15:45:49;;;;;;;4.47;1.80;;;;;;;20.31;21.55;98539.28;5004753;28;20041;-83
2022/02/08 15:48:20;;;;;;;5.63;2.58;;;;;;;20.73;20.74;98538.47;5009248;28;20148;-83
2022/02/08 15:51:05;;;;;;;;;;;;;;;20.25;21.05;98542.84;5014439;28;20413;-83
2022/02/08 16:07:02;;;;;;;6.45;2.70;;;;;;;22.24;20.01;98523.09;5003559;28;20131;-83
2022/02/08 16:12:32;;;;;;;7.00;2.38;;;;;;;23.01;19.14;98523.66;5010444;28;20038;-82
2022/02/08 16:25:43;;;;;;;8.20;3.50;;;;;;;24.03;18.46;98505.53;5002987;28;20108;-83
2022/02/08 16:52:48;;;;;;;6.07;3.70;;;;;;;24.34;18.99;98507.06;4999987;28;20050;-83
2022/02/08 17:00:43;;;;;;;5.90;3.33;;;;;;;22.45;20.78;98516.56;4995755;28;20077;-83
2022/02/08 17:03:09;;;;;;;10.73;3.80;;;;;;;21.78;22.02;98528.16;5009643;28;20501;-84
2022/02/08 17:05:36;;;;;;;8.80;3.95;;;;;;;21.72;22.10;98518.63;5005219;28;20037;-83
2022/02/08 17:08:02;;;;;;;9.95;3.80;;;;;;;22.47;21.27;98528.94;5004694;28;20105;-83
2022/02/08 17:13:30;;;;;;;7.07;3.22;;;;;;;22.15;21.96;98505.97;5008532;28;20046;-85
2022/02/08 17:48:02;;;;;;;7.75;3.80;;;;;;;21.11;23.95;98520.06;5003870;28;20489;-84
2022/02/08 17:50:28;;;;;;;9.45;4.20;;;;;;;21.43;23.64;98517.16;5008745;28;20094;-84
2022/02/08 17:52:55;;;;;;;9.32;4.68;;;;;;;20.59;24.45;98514.16;5006473;28;20560;-84
2022/02/08 17:55:22;;;;;;;13.73;7.45;;;;;;;21.66;23.51;98521.03;5005439;28;20022;-84
2022/02/08 17:57:52;;;;;;;12.82;5.75;;;;;;;22.76;22.22;98523.06;5005132;28;20030;-84
2022/02/08 18:00:19;;;;;;;14.23;7.32;;;;;;;23.47;21.10;98526.75;5003502;28;20038;-84
2022/02/08 18:02:45;;;;;;;11.88;5.85;;;;;;;23.20;21.23;98520.22;5005477;28;20027;-85
2022/02/08 18:05:15;;;;;;;12.40;5.80;;;;;;;22.85;21.53;98524.19;5005232;28;20548;-85
2022/02/08 18:07:43;;;;;;;10.13;4.80;;;;;;;22.68;22.20;98528.75;5011741;28;20038;-84
2022/02/08 18:10:11;;;;;;;7.65;4.72;;;;;;;22.91;21.78;98524.53;5011039;28;20041;-85
2022/02/08 18:12:41;;;;;;;7.82;4.15;;;;;;;23.28;21.26;98528.13;5011666;28;20038;-84
2022/02/08 18:15:12;;;;;;;6.97;3.77;;;;;;;22.63;22.24;98518.03;5010641;28;20116;-85
2022/02/08 18:17:47;;;;;;;6.30;3.70;;;;;;;23.35;21.67;98511.28;5010851;28;20175;-84
2022/02/08 18:25:43;;;;;;;7.68;4.03;;;;;;;23.98;20.88;98492.00;5011717;28;20099;-83
2022/02/08 19:16:51;;;;;;;8.55;3.72;;;;;;;20.47;27.16;98547.22;5003250;28;20033;-85
2022/02/08 19:19:42;;;;;;;10.95;4.90;;;;;;;20.67;26.65;98535.28;5005266;28;20069;-83
2022/02/08 19:22:08;;;;;;;11.30;5.10;;;;;;;22.00;24.87;98530.47;5005907;28;20044;-86
2022/02/08 19:24:34;;;;;;;10.77;4.63;;;;;;;21.44;25.58;98550.28;5006658;28;20046;-86
2022/02/08 19:27:02;;;;;;;14.20;4.53;;;;;;;21.54;25.85;98543.84;5007811;28;20083;-84